createdAt,value
2018-08-11T00:04:19.000Z,23.84
2018-08-11T00:14:19.000Z,23.82
2018-08-11T00:24:19.000Z,23.77
2018-08-11T00:34:19.000Z,23.87
2018-08-11T00:44:19.000Z,23.94
2018-08-11T00:54:19.000Z,24.06
2018-08-11T01:04:19.000Z,23.82
2018-08-11T01:14:19.000Z,23.85
2018-08-11T01:24:19.000Z,23.9
2018-08-11T01:34:19.000Z,23.86
2018-08-11T01:44:19.000Z,23.88
2018-08-11T01:54:19.000Z,23.84
2018-08-11T02:04:19.000Z,24
2018-08-11T02:14:19.000Z,24.04
2018-08-11T02:24:19.000Z,24.03
2018-08-11T02:34:19.000Z,23.75
2018-08-11T02:44:19.000Z,23.95
2018-08-11T02:54:19.000Z,23.52
2018-08-11T03:04:19.000Z,23.82
2018-08-11T03:14:20.000Z,23.78
2018-08-11T03:24:19.000Z,23.79
2018-08-11T03:34:19.000Z,23.71
2018-08-11T03:44:19.000Z,23.69
2018-08-11T03:54:19.000Z,23.68
2018-08-11T04:04:19.000Z,23.65
2018-08-11T04:14:19.000Z,23.46
2018-08-11T04:24:19.000Z,23.55
2018-08-11T04:34:19.000Z,23.57
2018-08-11T04:44:19.000Z,23.57
2018-08-11T04:54:19.000Z,23.54
2018-08-11T05:04:19.000Z,23.41
2018-08-11T05:14:19.000Z,23.25
2018-08-11T05:24:19.000Z,23.45
2018-08-11T05:34:19.000Z,23.46
2018-08-11T05:44:19.000Z,23.45
2018-08-11T05:54:19.000Z,23.26
2018-08-11T06:04:19.000Z,23.38
2018-08-11T06:14:20.000Z,23.29
2018-08-11T06:24:20.000Z,23.34
2018-08-11T06:34:20.000Z,23.43
2018-08-11T06:44:20.000Z,23.24
2018-08-11T06:54:20.000Z,23.37
2018-08-11T07:04:20.000Z,23.14
2018-08-11T07:14:20.000Z,23.27
2018-08-11T07:24:20.000Z,23.05
2018-08-11T07:34:20.000Z,23.17
2018-08-11T07:44:20.000Z,23.29
2018-08-11T07:54:20.000Z,23.14
2018-08-11T08:04:20.000Z,23.36
2018-08-11T08:14:20.000Z,23.37
2018-08-11T08:24:20.000Z,23.52
2018-08-11T08:34:20.000Z,23.59
2018-08-11T08:44:20.000Z,23.3
2018-08-11T08:54:20.000Z,23.24
2018-08-11T09:04:20.000Z,23.43
2018-08-11T09:14:20.000Z,24.04
2018-08-11T09:24:20.000Z,24.01
2018-08-11T09:34:20.000Z,24.16
2018-08-11T09:44:20.000Z,24.26
2018-08-11T09:54:20.000Z,24.46
2018-08-11T10:04:20.000Z,24.46
2018-08-11T10:14:20.000Z,24.73
2018-08-11T10:24:20.000Z,24.59
2018-08-11T10:34:20.000Z,24.85
2018-08-11T10:44:20.000Z,24.72
2018-08-11T10:54:20.000Z,24.68
2018-08-11T11:04:20.000Z,24.78
2018-08-11T11:14:20.000Z,24.96
2018-08-11T11:24:20.000Z,25.13
2018-08-11T11:34:20.000Z,25.09
2018-08-11T11:44:20.000Z,25.35
2018-08-11T11:54:20.000Z,25.3
2018-08-11T12:04:20.000Z,25.41
2018-08-11T12:14:20.000Z,25.37
2018-08-11T12:24:20.000Z,25.41
2018-08-11T12:34:20.000Z,25.56
2018-08-11T12:44:20.000Z,25.55
2018-08-11T12:54:20.000Z,25.81
2018-08-11T13:04:20.000Z,25.92
2018-08-11T13:14:20.000Z,25.98
2018-08-11T13:24:20.000Z,26.08
2018-08-11T13:34:20.000Z,26.03
2018-08-11T13:44:20.000Z,25.88
2018-08-11T13:54:20.000Z,26.11
2018-08-11T14:04:20.000Z,26.12
2018-08-11T14:14:20.000Z,25.94
2018-08-11T14:24:21.000Z,26.06
2018-08-11T14:34:21.000Z,25.92
2018-08-11T14:44:21.000Z,25.92
2018-08-11T14:54:21.000Z,25.98
2018-08-11T15:04:21.000Z,25.94
2018-08-11T15:14:21.000Z,25.81
2018-08-11T15:24:21.000Z,25.47
2018-08-11T15:34:21.000Z,25.38
2018-08-11T15:44:21.000Z,25.31
2018-08-11T15:54:21.000Z,25.47
2018-08-11T16:04:21.000Z,25.5
2018-08-11T16:14:21.000Z,25.52
2018-08-11T16:24:21.000Z,25.59
2018-08-11T16:34:21.000Z,25.65
2018-08-11T16:44:21.000Z,25.7
2018-08-11T16:54:21.000Z,25.73
2018-08-11T17:04:21.000Z,25.76
2018-08-11T17:14:21.000Z,25.77
2018-08-11T17:24:21.000Z,25.8
2018-08-11T17:34:21.000Z,25.82
2018-08-11T17:44:21.000Z,25.86
2018-08-11T17:54:21.000Z,25.79
2018-08-11T18:04:21.000Z,25.79
2018-08-11T18:14:21.000Z,25.76
2018-08-11T18:24:21.000Z,25.77
2018-08-11T18:34:21.000Z,25.71
2018-08-11T18:44:22.000Z,25.7
2018-08-11T18:54:21.000Z,25.69
2018-08-11T19:04:21.000Z,25.67
2018-08-11T19:14:21.000Z,25.64
2018-08-11T19:24:21.000Z,25.6
2018-08-11T19:34:21.000Z,25.58
2018-08-11T19:44:21.000Z,25.55
2018-08-11T19:54:21.000Z,25.48
2018-08-11T20:04:21.000Z,25.46
2018-08-11T20:14:21.000Z,25.43
2018-08-11T20:24:21.000Z,25.41
2018-08-11T20:34:21.000Z,25.4
2018-08-11T20:44:21.000Z,25.37
2018-08-11T20:54:21.000Z,25.3
2018-08-11T21:04:21.000Z,25.25
2018-08-11T21:14:21.000Z,25.22
2018-08-11T21:24:21.000Z,25.17
2018-08-11T21:34:21.000Z,25.16
2018-08-11T21:44:21.000Z,25.19
2018-08-11T21:54:21.000Z,25.12
2018-08-11T22:04:21.000Z,25.04
2018-08-11T22:14:21.000Z,24.92
2018-08-11T22:24:22.000Z,24.85
2018-08-11T22:34:22.000Z,24.8
2018-08-11T22:44:22.000Z,24.77
2018-08-11T22:54:22.000Z,24.7
2018-08-11T23:04:22.000Z,24.66
2018-08-11T23:14:22.000Z,24.59
2018-08-11T23:24:22.000Z,24.54
2018-08-11T23:34:22.000Z,24.45
2018-08-11T23:44:22.000Z,24.42
2018-08-11T23:54:22.000Z,24.39
